TimeCET,TemperatureF,Dew PointF,Humidity,Sea Level PressureIn,VisibilityMPH,Wind Direction,Wind SpeedMPH,Gust SpeedMPH,PrecipitationIn,Events,Conditions,WindDirDegrees,DateUTC
12:00 AM,32,23,59,30.13,10,SE,11.2,,,,,130,2013-03-04 23:00:00
12:20 AM,32.0,19.4,60,30.04,6.2,SE,8.1,-,N/A,,Unknown,140,2013-03-04 23:20:00
12:50 AM,32.0,19.4,60,30.04,6.2,SSE,6.9,-,N/A,,Unknown,150,2013-03-04 23:50:00
1:00 AM,32,22,56,30.12,10,SSE,6.7,,,,,150,2013-03-05 00:00:00
1:20 AM,32.0,19.4,60,30.04,6.2,SE,5.8,-,N/A,,Unknown,140,2013-03-05 00:20:00
1:50 AM,30.2,19.4,64,30.01,6.2,SE,5.8,-,N/A,,Unknown,140,2013-03-05 00:50:00
2:00 AM,31,22,57,30.11,10,SSE,6.7,,,,,150,2013-03-05 01:00:00
2:20 AM,28.4,19.4,69,30.01,6.2,South,6.9,-,N/A,,Unknown,170,2013-03-05 01:20:00
2:50 AM,28.4,17.6,64,29.98,6.2,South,6.9,-,N/A,,Unknown,170,2013-03-05 01:50:00
3:00 AM,29,21,63,30.09,9,SE,8.9,,,,,140,2013-03-05 02:00:00
3:20 AM,30.2,19.4,64,29.98,6.2,SE,6.9,-,N/A,,Unknown,140,2013-03-05 02:20:00
3:50 AM,28.4,19.4,69,29.98,6.2,SSE,8.1,-,N/A,,Unknown,160,2013-03-05 02:50:00
4:20 AM,30.2,19.4,64,29.98,6.2,SSE,8.1,-,N/A,,Unknown,160,2013-03-05 03:20:00
4:50 AM,28.4,19.4,69,29.98,6.2,SE,9.2,-,N/A,,Unknown,140,2013-03-05 03:50:00
5:00 AM,29,22,65,30.06,7,SSE,11.2,,,,,150,2013-03-05 04:00:00
5:20 AM,26.6,19.4,74,29.98,6.2,SSE,8.1,-,N/A,,Unknown,160,2013-03-05 04:20:00
5:50 AM,28.4,19.4,69,29.95,6.2,SE,11.5,-,N/A,,Unknown,130,2013-03-05 04:50:00
6:00 AM,28,22,69,30.06,12,SSE,13.4,,,,Partly Cloudy,150,2013-03-05 05:00:00
6:20 AM,26.6,17.6,69,29.95,6.2,SE,9.2,-,N/A,,Unknown,130,2013-03-05 05:20:00
6:50 AM,26.6,19.4,74,29.95,6.2,SSE,5.8,-,N/A,,Unknown,160,2013-03-05 05:50:00
7:00 AM,28,22,69,30.05,16,SSE,6.7,,,,,150,2013-03-05 06:00:00
7:20 AM,26.6,19.4,74,29.95,6.2,SE,9.2,-,N/A,,Unknown,130,2013-03-05 06:20:00
7:50 AM,28.4,19.4,69,29.95,-9999.0,SE,8.1,-,N/A,,Clear,140,2013-03-05 06:50:00
8:00 AM,29,22,67,30.04,14,SE,8.9,,,,,140,2013-03-05 07:00:00
8:20 AM,28.4,19.4,69,29.95,-9999.0,South,4.6,-,N/A,,Clear,170,2013-03-05 07:20:00
8:50 AM,30.2,21.2,69,29.95,-9999.0,SSE,5.8,-,N/A,,Clear,150,2013-03-05 07:50:00
9:00 AM,31,23,61,30.02,12,SE,11.2,,,,,140,2013-03-05 08:00:00
9:20 AM,32.0,21.2,64,29.95,-9999.0,SSE,5.8,-,N/A,,Clear,150,2013-03-05 08:20:00
9:50 AM,33.8,21.2,60,29.95,-9999.0,SSE,5.8,-,N/A,,Clear,160,2013-03-05 08:50:00
10:50 AM,35.6,23.0,60,29.92,-9999.0,SSE,9.2,-,N/A,,Clear,150,2013-03-05 09:50:00
11:00 AM,36,24,51,29.99,12,SE,6.7,,,,,140,2013-03-05 10:00:00
11:20 AM,37.4,23.0,56,29.92,-9999.0,SSE,11.5,-,N/A,,Clear,150,2013-03-05 10:20:00
11:50 AM,39.2,23.0,52,29.92,-9999.0,SSE,10.4,-,N/A,,Clear,150,2013-03-05 10:50:00
12:00 PM,39,25,44,29.97,12,SSE,8.9,,,,,160,2013-03-05 11:00:00
12:20 PM,39.2,23.0,52,29.92,-9999.0,SSE,8.1,-,N/A,,Clear,150,2013-03-05 11:20:00
12:50 PM,41.0,23.0,49,29.89,-9999.0,SSE,8.1,-,N/A,,Clear,150,2013-03-05 11:50:00
1:00 PM,41,25,40,29.94,14,SSE,6.7,,,,,160,2013-03-05 12:00:00
1:20 PM,42.8,24.8,49,29.89,-9999.0,SSE,8.1,-,N/A,,Clear,150,2013-03-05 12:20:00
1:50 PM,42.8,23.0,46,29.89,-9999.0,SSE,9.2,-,N/A,,Clear,150,2013-03-05 12:50:00
2:00 PM,43,26,37,29.92,16,SSE,8.9,,,,,160,2013-03-05 13:00:00
2:20 PM,42.8,24.8,49,29.86,-9999.0,SSE,6.9,-,N/A,,Clear,150,2013-03-05 13:20:00
2:50 PM,42.8,24.8,49,29.86,-9999.0,SSE,6.9,-,N/A,,Clear,150,2013-03-05 13:50:00
3:00 PM,45,26,34,29.89,19,SSE,8.9,,,,,150,2013-03-05 14:00:00
3:20 PM,42.8,24.8,49,29.86,-9999.0,SE,8.1,-,N/A,,Clear,140,2013-03-05 14:20:00
3:50 PM,44.6,23.0,43,29.86,-9999.0,SE,8.1,-,N/A,,Clear,140,2013-03-05 14:50:00
4:20 PM,44.6,23.0,43,29.83,-9999.0,SE,6.9,-,N/A,,Clear,140,2013-03-05 15:20:00
4:50 PM,42.8,24.8,49,29.83,-9999.0,SE,6.9,-,N/A,,Clear,140,2013-03-05 15:50:00
5:00 PM,45,27,36,29.86,19,SSE,6.7,,,,,150,2013-03-05 16:00:00
5:20 PM,42.8,24.8,49,29.83,-9999.0,SSE,6.9,-,N/A,,Clear,160,2013-03-05 16:20:00
5:50 PM,41.0,24.8,53,29.83,-9999.0,SSE,6.9,-,N/A,,Clear,160,2013-03-05 16:50:00
6:00 PM,41,28,49,29.88,7,SE,6.7,,,,,140,2013-03-05 17:00:00
6:20 PM,39.2,24.8,56,29.83,-9999.0,SE,5.8,-,N/A,,Clear,140,2013-03-05 17:20:00
6:50 PM,39.2,24.8,56,29.83,-9999.0,Variable,3.5,-,N/A,,Clear,0,2013-03-05 17:50:00
7:00 PM,38,28,58,29.88,5,SE,6.7,,,,,140,2013-03-05 18:00:00
7:20 PM,39.2,24.8,56,29.83,-9999.0,SE,3.5,-,N/A,,Clear,130,2013-03-05 18:20:00
7:50 PM,37.4,24.8,60,29.83,-9999.0,SSE,6.9,-,N/A,,Clear,150,2013-03-05 18:50:00
8:00 PM,36,28,64,29.89,4,SSE,4.5,,,,Light Haze,160,2013-03-05 19:00:00
8:20 PM,37.4,24.8,60,29.83,-9999.0,SE,6.9,-,N/A,,Clear,140,2013-03-05 19:20:00
8:50 PM,35.6,24.8,65,29.80,-9999.0,SSE,6.9,-,N/A,,Clear,160,2013-03-05 19:50:00
9:00 PM,34,27,68,29.88,4,SSE,4.5,,,,Light Haze,150,2013-03-05 20:00:00
9:20 PM,35.6,26.6,70,29.80,-9999.0,South,5.8,-,N/A,,Clear,170,2013-03-05 20:20:00
9:50 PM,35.6,24.8,65,29.80,6.2,South,4.6,-,N/A,,Unknown,180,2013-03-05 20:50:00
10:20 PM,33.8,24.8,70,29.80,6.2,SSE,6.9,-,N/A,,Unknown,160,2013-03-05 21:20:00
10:50 PM,33.8,24.8,70,29.80,6.2,South,5.8,-,N/A,,Unknown,170,2013-03-05 21:50:00
11:00 PM,33,28,74,29.87,3,SSE,6.7,,,,Mist,150,2013-03-05 22:00:00
11:20 PM,33.8,26.6,75,29.80,6.2,South,5.8,-,N/A,,Unknown,180,2013-03-05 22:20:00
11:50 PM,33.8,24.8,70,29.77,6.2,South,4.6,-,N/A,,Unknown,180,2013-03-05 22:50:00